Dades meteorològiques de l'aviació METAR     EFOU Oulu Airport
Temperatura
19°C Temperatura
19°C Rosada
100% Humitat



Vent
5 MPH
8 KM/H
2 M/S
4 NUS



180°
S
Condicions actuals

Sense núvols Sense núvols
Pressió 1012.92 (hPa) - 29.91 (inHg)
Visibilitat 6.2 (milla) - 10 (km)
Aeroport
Codi aeroport EFOU

Ubicació: Oulu Airport
Distància: 83 (mi)

Metar:
EFOU 030120Z AUTO 18004KT 150V210 CAVOK 19/19 Q1013

Temps: 03-07-2022 04:20 EEST